| time (UTC) | temp C | wind direction | speed KPH | gust KPH | rain 1hr cm | rain 24hr cm | rain mn cm | humidity % | barometer mb |
| 20260508185702 | 13 | 158 | 9.7 | 0.0 | 0.00 | 0.00 | 0.00 | 57 | 1007.0 |
| 20260508175701 | 14 | 158 | 9.7 | 0.0 | 0.00 | 0.00 | 0.00 | 57 | 1008.0 |
| 20260508165703 | 15 | 158 | 9.7 | 0.0 | 0.00 | 0.00 | 0.00 | 57 | 1008.0 |
| 20260508155702 | 16 | 158 | 9.7 | 0.0 | 0.00 | 0.00 | 0.00 | 57 | 1008.0 |
| 20260508145702 | 17 | 158 | 9.7 | 0.0 | 0.00 | 0.00 | 0.00 | 57 | 1008.0 |
| 20260508135702 | 18 | 158 | 9.7 | 0.0 | 0.00 | 0.00 | 0.00 | 57 | 1008.0 |
| 20260508125702 | 20 | 158 | 9.7 | 0.0 | 0.00 | 0.00 | 0.00 | 57 | 1008.0 |
| 20260508115701 | 16 | 113 | 11.3 | 0.0 | 0.00 | 0.00 | 0.00 | 51 | 1008.0 |
| 20260508105703 | 17 | 113 | 11.3 | 0.0 | 0.00 | 0.00 | 0.00 | 51 | 1009.0 |
| 20260508095702 | 18 | 113 | 11.3 | 0.0 | 0.00 | 0.00 | 0.00 | 51 | 1009.0 |
| 20260508085702 | 20 | 113 | 11.3 | 0.0 | 0.00 | 0.00 | 0.00 | 51 | 1009.0 |
| 20260508075701 | 21 | 113 | 11.3 | 0.0 | 0.00 | 0.00 | 0.00 | 51 | 1009.0 |
| 20260508065702 | 17 | 122 | 4.8 | 0.0 | 0.00 | 0.00 | 0.00 | 57 | 1010.0 |
| 20260508055703 | 18 | 122 | 4.8 | 0.0 | 0.00 | 0.00 | 0.00 | 57 | 1011.0 |
| 20260508045702 | 19 | 122 | 4.8 | 0.0 | 0.00 | 0.00 | 0.00 | 57 | 1011.0 |
| 20260508035702 | 15 | 109 | 3.2 | 0.0 | 0.00 | 0.00 | 0.00 | 70 | 1011.0 |
| 20260508025702 | 16 | 109 | 3.2 | 0.0 | 0.00 | 0.00 | 0.00 | 70 | 1011.0 |
| 20260508015702 | 10 | 111 | 4.8 | 0.0 | 0.00 | 0.00 | 0.00 | 79 | 1011.0 |
| 20260508005702 | 11 | 111 | 4.8 | 0.0 | 0.00 | 0.00 | 0.00 | 79 | 1011.0 |
| 20260507235703 | 12 | 111 | 4.8 | 0.0 | 0.00 | 0.00 | 0.00 | 79 | 1011.0 |
| 20260507225702 | 9 | 39 | 6.4 | 0.0 | 0.00 | 0.00 | 0.00 | 63 | 1011.0 |
| 20260507215702 | 10 | 39 | 6.4 | 0.0 | 0.00 | 0.00 | 0.00 | 63 | 1011.0 |
| 20260507205702 | 11 | 39 | 6.4 | 0.0 | 0.00 | 0.00 | 0.00 | 63 | 1011.0 |
| 20260507195701 | 12 | 39 | 6.4 | 0.0 | 0.00 | 0.00 | 0.00 | 63 | 1011.0 |